sensor_id;sensor_type;location;lat;lon;timestamp;P1;durP1;ratioP1;P2;durP2;ratioP2
3718;SDS011;1875;52.492;6.860;2024-02-15T00:00:53;46.70;;;15.00;;
3718;SDS011;1875;52.492;6.860;2024-02-15T00:03:22;47.25;;;14.65;;
3718;SDS011;1875;52.492;6.860;2024-02-15T00:05:51;42.65;;;12.93;;
3718;SDS011;1875;52.492;6.860;2024-02-15T00:08:19;39.33;;;12.32;;
3718;SDS011;1875;52.492;6.860;2024-02-15T00:10:47;48.75;;;15.65;;
3718;SDS011;1875;52.492;6.860;2024-02-15T00:13:15;48.30;;;17.35;;
3718;SDS011;1875;52.492;6.860;2024-02-15T00:15:43;42.63;;;14.77;;
3718;SDS011;1875;52.492;6.860;2024-02-15T00:18:14;41.00;;;14.45;;
3718;SDS011;1875;52.492;6.860;2024-02-15T00:20:44;48.20;;;14.77;;
3718;SDS011;1875;52.492;6.860;2024-02-15T00:23:12;46.83;;;14.77;;
3718;SDS011;1875;52.492;6.860;2024-02-15T00:25:43;51.85;;;15.95;;
3718;SDS011;1875;52.492;6.860;2024-02-15T00:28:11;44.10;;;14.82;;
3718;SDS011;1875;52.492;6.860;2024-02-15T00:30:39;52.50;;;14.02;;
3718;SDS011;1875;52.492;6.860;2024-02-15T00:33:07;51.40;;;16.75;;
3718;SDS011;1875;52.492;6.860;2024-02-15T00:35:36;51.38;;;16.75;;
3718;SDS011;1875;52.492;6.860;2024-02-15T00:38:05;53.05;;;16.90;;
3718;SDS011;1875;52.492;6.860;2024-02-15T00:40:34;50.90;;;16.83;;
3718;SDS011;1875;52.492;6.860;2024-02-15T00:43:02;56.85;;;20.25;;
3718;SDS011;1875;52.492;6.860;2024-02-15T00:45:31;63.95;;;18.48;;
3718;SDS011;1875;52.492;6.860;2024-02-15T00:47:58;59.28;;;19.13;;
3718;SDS011;1875;52.492;6.860;2024-02-15T00:50:27;56.45;;;18.48;;
3718;SDS011;1875;52.492;6.860;2024-02-15T00:52:55;70.72;;;22.92;;
3718;SDS011;1875;52.492;6.860;2024-02-15T00:55:24;66.30;;;21.42;;
3718;SDS011;1875;52.492;6.860;2024-02-15T01:00:20;61.90;;;19.85;;
3718;SDS011;1875;52.492;6.860;2024-02-15T01:02:48;64.75;;;19.33;;
3718;SDS011;1875;52.492;6.860;2024-02-15T01:05:16;63.65;;;20.23;;
3718;SDS011;1875;52.492;6.860;2024-02-15T01:07:45;60.83;;;18.75;;
3718;SDS011;1875;52.492;6.860;2024-02-15T01:10:15;66.38;;;20.55;;
3718;SDS011;1875;52.492;6.860;2024-02-15T01:12:45;65.55;;;19.40;;
3718;SDS011;1875;52.492;6.860;2024-02-15T01:15:13;48.88;;;18.35;;
3718;SDS011;1875;52.492;6.860;2024-02-15T01:17:44;57.55;;;17.23;;
3718;SDS011;1875;52.492;6.860;2024-02-15T01:20:13;63.67;;;18.55;;
3718;SDS011;1875;52.492;6.860;2024-02-15T01:22:42;54.53;;;17.63;;
3718;SDS011;1875;52.492;6.860;2024-02-15T01:25:10;56.95;;;19.00;;
3718;SDS011;1875;52.492;6.860;2024-02-15T01:27:38;51.42;;;15.50;;
3718;SDS011;1875;52.492;6.860;2024-02-15T01:30:08;45.17;;;15.10;;
3718;SDS011;1875;52.492;6.860;2024-02-15T01:32:37;54.30;;;15.63;;
3718;SDS011;1875;52.492;6.860;2024-02-15T01:35:08;40.38;;;14.00;;
3718;SDS011;1875;52.492;6.860;2024-02-15T01:37:37;47.35;;;13.05;;
3718;SDS011;1875;52.492;6.860;2024-02-15T01:40:06;42.08;;;12.57;;
3718;SDS011;1875;52.492;6.860;2024-02-15T01:42:34;45.83;;;15.63;;
3718;SDS011;1875;52.492;6.860;2024-02-15T01:45:02;41.42;;;12.95;;
3718;SDS011;1875;52.492;6.860;2024-02-15T01:47:32;39.80;;;12.90;;
3718;SDS011;1875;52.492;6.860;2024-02-15T01:50:00;32.90;;;11.88;;
3718;SDS011;1875;52.492;6.860;2024-02-15T01:52:29;39.80;;;12.05;;
3718;SDS011;1875;52.492;6.860;2024-02-15T01:54:57;38.70;;;11.20;;
3718;SDS011;1875;52.492;6.860;2024-02-15T01:57:26;40.72;;;12.20;;
3718;SDS011;1875;52.492;6.860;2024-02-15T01:59:54;35.60;;;11.20;;
3718;SDS011;1875;52.492;6.860;2024-02-15T02:02:22;32.38;;;11.30;;
3718;SDS011;1875;52.492;6.860;2024-02-15T02:04:54;38.60;;;12.32;;
3718;SDS011;1875;52.492;6.860;2024-02-15T02:07:22;38.42;;;11.68;;
3718;SDS011;1875;52.492;6.860;2024-02-15T02:09:49;35.33;;;11.90;;
3718;SDS011;1875;52.492;6.860;2024-02-15T02:12:17;39.05;;;11.02;;
3718;SDS011;1875;52.492;6.860;2024-02-15T02:14:45;39.20;;;10.88;;
3718;SDS011;1875;52.492;6.860;2024-02-15T02:17:13;34.30;;;9.95;;
3718;SDS011;1875;52.492;6.860;2024-02-15T02:19:41;29.17;;;9.07;;
3718;SDS011;1875;52.492;6.860;2024-02-15T02:22:12;33.28;;;11.32;;
3718;SDS011;1875;52.492;6.860;2024-02-15T02:24:44;35.95;;;;;
3718;SDS011;1875;52.492;6.860;2024-02-15T02:27:26;29.83;;;9.65;;
3718;SDS011;1875;52.492;6.860;2024-02-15T02:29:54;36.58;;;9.95;;
3718;SDS011;1875;52.492;6.860;2024-02-15T02:32:23;32.55;;;11.20;;
3718;SDS011;1875;52.492;6.860;2024-02-15T02:34:51;35.55;;;10.35;;
3718;SDS011;1875;52.492;6.860;2024-02-15T02:37:21;32.20;;;10.05;;
3718;SDS011;1875;52.492;6.860;2024-02-15T02:39:48;30.45;;;9.00;;
3718;SDS011;1875;52.492;6.860;2024-02-15T02:42:18;34.45;;;10.52;;
3718;SDS011;1875;52.492;6.860;2024-02-15T02:47:13;35.60;;;10.55;;
3718;SDS011;1875;52.492;6.860;2024-02-15T02:49:41;38.97;;;11.80;;
3718;SDS011;1875;52.492;6.860;2024-02-15T02:52:09;33.65;;;10.55;;
3718;SDS011;1875;52.492;6.860;2024-02-15T02:54:37;32.53;;;10.65;;
3718;SDS011;1875;52.492;6.860;2024-02-15T02:57:05;31.15;;;11.05;;
3718;SDS011;1875;52.492;6.860;2024-02-15T02:59:35;36.35;;;12.35;;
3718;SDS011;1875;52.492;6.860;2024-02-15T03:02:06;32.35;;;11.05;;
3718;SDS011;1875;52.492;6.860;2024-02-15T03:04:35;45.17;;;12.80;;
3718;SDS011;1875;52.492;6.860;2024-02-15T03:07:05;37.45;;;12.80;;
3718;SDS011;1875;52.492;6.860;2024-02-15T03:09:33;41.90;;;13.88;;
3718;SDS011;1875;52.492;6.860;2024-02-15T03:12:02;41.85;;;13.55;;
3718;SDS011;1875;52.492;6.860;2024-02-15T03:14:30;44.42;;;15.30;;
3718;SDS011;1875;52.492;6.860;2024-02-15T03:17:03;38.28;;;13.32;;
3718;SDS011;1875;52.492;6.860;2024-02-15T03:19:32;40.05;;;13.35;;
3718;SDS011;1875;52.492;6.860;2024-02-15T03:22:00;48.47;;;14.75;;
3718;SDS011;1875;52.492;6.860;2024-02-15T03:24:28;50.90;;;15.55;;
3718;SDS011;1875;52.492;6.860;2024-02-15T03:26:56;46.35;;;16.75;;
3718;SDS011;1875;52.492;6.860;2024-02-15T03:29:24;47.13;;;16.13;;
3718;SDS011;1875;52.492;6.860;2024-02-15T03:31:52;48.47;;;16.33;;
3718;SDS011;1875;52.492;6.860;2024-02-15T03:34:22;46.97;;;17.45;;
3718;SDS011;1875;52.492;6.860;2024-02-15T03:36:52;53.90;;;17.98;;
3718;SDS011;1875;52.492;6.860;2024-02-15T03:39:20;50.35;;;16.98;;
3718;SDS011;1875;52.492;6.860;2024-02-15T03:41:50;55.35;;;19.90;;
3718;SDS011;1875;52.492;6.860;2024-02-15T03:44:20;63.97;;;17.75;;
3718;SDS011;1875;52.492;6.860;2024-02-15T03:46:47;54.97;;;19.15;;
3718;SDS011;1875;52.492;6.860;2024-02-15T03:49:17;54.28;;;17.55;;
3718;SDS011;1875;52.492;6.860;2024-02-15T03:51:47;53.38;;;19.13;;
3718;SDS011;1875;52.492;6.860;2024-02-15T03:54:15;49.70;;;18.40;;
3718;SDS011;1875;52.492;6.860;2024-02-15T03:56:46;49.85;;;19.67;;
3718;SDS011;1875;52.492;6.860;2024-02-15T03:59:19;66.53;;;18.73;;
3718;SDS011;1875;52.492;6.860;2024-02-15T04:01:53;58.42;;;20.08;;
3718;SDS011;1875;52.492;6.860;2024-02-15T04:04:21;54.20;;;18.75;;
3718;SDS011;1875;52.492;6.860;2024-02-15T04:06:50;59.63;;;19.98;;
3718;SDS011;1875;52.492;6.860;2024-02-15T04:09:19;58.53;;;19.00;;
3718;SDS011;1875;52.492;6.860;2024-02-15T04:11:47;57.35;;;19.27;;
3718;SDS011;1875;52.492;6.860;2024-02-15T04:14:20;51.35;;;19.27;;
3718;SDS011;1875;52.492;6.860;2024-02-15T04:16:47;46.05;;;18.25;;
3718;SDS011;1875;52.492;6.860;2024-02-15T04:19:15;57.22;;;21.23;;
3718;SDS011;1875;52.492;6.860;2024-02-15T04:21:46;56.25;;;19.45;;
3718;SDS011;1875;52.492;6.860;2024-02-15T04:24:15;55.13;;;19.52;;
3718;SDS011;1875;52.492;6.860;2024-02-15T04:26:43;47.00;;;18.25;;
3718;SDS011;1875;52.492;6.860;2024-02-15T04:29:14;41.50;;;18.38;;
3718;SDS011;1875;52.492;6.860;2024-02-15T04:31:41;49.80;;;19.50;;
3718;SDS011;1875;52.492;6.860;2024-02-15T04:34:09;49.80;;;20.15;;
3718;SDS011;1875;52.492;6.860;2024-02-15T04:36:38;46.22;;;18.33;;
3718;SDS011;1875;52.492;6.860;2024-02-15T04:39:05;51.75;;;18.40;;
3718;SDS011;1875;52.492;6.860;2024-02-15T04:41:37;49.60;;;18.10;;
3718;SDS011;1875;52.492;6.860;2024-02-15T04:44:07;49.70;;;17.85;;
3718;SDS011;1875;52.492;6.860;2024-02-15T04:46:38;45.30;;;17.65;;
3718;SDS011;1875;52.492;6.860;2024-02-15T04:49:07;52.40;;;17.20;;
3718;SDS011;1875;52.492;6.860;2024-02-15T04:51:36;46.13;;;17.98;;
3718;SDS011;1875;52.492;6.860;2024-02-15T04:54:04;43.00;;;16.33;;
3718;SDS011;1875;52.492;6.860;2024-02-15T04:56:33;45.15;;;18.05;;
3718;SDS011;1875;52.492;6.860;2024-02-15T04:59:03;45.53;;;16.27;;
3718;SDS011;1875;52.492;6.860;2024-02-15T05:01:33;47.75;;;17.13;;
3718;SDS011;1875;52.492;6.860;2024-02-15T05:04:01;41.35;;;16.25;;
3718;SDS011;1875;52.492;6.860;2024-02-15T05:06:30;43.63;;;17.05;;
3718;SDS011;1875;52.492;6.860;2024-02-15T05:08:59;43.20;;;16.50;;
3718;SDS011;1875;52.492;6.860;2024-02-15T05:11:27;47.60;;;17.15;;
3718;SDS011;1875;52.492;6.860;2024-02-15T05:13:55;47.88;;;15.55;;
3718;SDS011;1875;52.492;6.860;2024-02-15T05:18:53;38.22;;;16.23;;
3718;SDS011;1875;52.492;6.860;2024-02-15T05:21:21;47.63;;;16.73;;
3718;SDS011;1875;52.492;6.860;2024-02-15T05:23:49;39.88;;;14.63;;
3718;SDS011;1875;52.492;6.860;2024-02-15T05:26:19;34.83;;;14.73;;
3718;SDS011;1875;52.492;6.860;2024-02-15T05:28:49;44.70;;;16.63;;
3718;SDS011;1875;52.492;6.860;2024-02-15T05:31:18;42.85;;;15.43;;
3718;SDS011;1875;52.492;6.860;2024-02-15T05:33:48;34.30;;;14.98;;
3718;SDS011;1875;52.492;6.860;2024-02-15T05:36:17;37.25;;;14.05;;
3718;SDS011;1875;52.492;6.860;2024-02-15T05:38:47;39.38;;;15.23;;
3718;SDS011;1875;52.492;6.860;2024-02-15T05:41:17;39.78;;;16.20;;
3718;SDS011;1875;52.492;6.860;2024-02-15T05:43:46;44.92;;;15.50;;
3718;SDS011;1875;52.492;6.860;2024-02-15T05:46:14;38.90;;;14.77;;
3718;SDS011;1875;52.492;6.860;2024-02-15T05:48:42;38.13;;;16.13;;
3718;SDS011;1875;52.492;6.860;2024-02-15T05:51:12;52.10;;;17.42;;
3718;SDS011;1875;52.492;6.860;2024-02-15T05:53:40;50.72;;;18.25;;
3718;SDS011;1875;52.492;6.860;2024-02-15T05:56:09;49.45;;;18.63;;
3718;SDS011;1875;52.492;6.860;2024-02-15T05:58:37;52.83;;;17.52;;
3718;SDS011;1875;52.492;6.860;2024-02-15T06:01:06;44.25;;;16.50;;
3718;SDS011;1875;52.492;6.860;2024-02-15T06:03:38;37.70;;;15.63;;
3718;SDS011;1875;52.492;6.860;2024-02-15T06:06:07;47.70;;;15.27;;
3718;SDS011;1875;52.492;6.860;2024-02-15T06:08:37;51.53;;;17.30;;
3718;SDS011;1875;52.492;6.860;2024-02-15T06:11:05;42.58;;;15.02;;
3718;SDS011;1875;52.492;6.860;2024-02-15T06:13:33;50.15;;;15.93;;
3718;SDS011;1875;52.492;6.860;2024-02-15T06:16:01;42.20;;;14.90;;
3718;SDS011;1875;52.492;6.860;2024-02-15T06:18:30;41.47;;;17.42;;
3718;SDS011;1875;52.492;6.860;2024-02-15T06:21:00;43.22;;;14.73;;
3718;SDS011;1875;52.492;6.860;2024-02-15T06:23:28;45.83;;;15.55;;
3718;SDS011;1875;52.492;6.860;2024-02-15T06:25:58;40.53;;;12.95;;
3718;SDS011;1875;52.492;6.860;2024-02-15T06:28:27;32.13;;;13.52;;
3718;SDS011;1875;52.492;6.860;2024-02-15T06:31:13;36.22;;;14.13;;
3718;SDS011;1875;52.492;6.860;2024-02-15T06:33:58;35.25;;;12.38;;
3718;SDS011;1875;52.492;6.860;2024-02-15T06:36:45;34.80;;;14.75;;
3718;SDS011;1875;52.492;6.860;2024-02-15T06:39:31;25.85;;;11.45;;
3718;SDS011;1875;52.492;6.860;2024-02-15T06:42:13;28.58;;;11.60;;
3718;SDS011;1875;52.492;6.860;2024-02-15T06:44:44;32.72;;;12.93;;
3718;SDS011;1875;52.492;6.860;2024-02-15T06:47:12;33.10;;;11.18;;
3718;SDS011;1875;52.492;6.860;2024-02-15T06:49:43;28.17;;;11.07;;
3718;SDS011;1875;52.492;6.860;2024-02-15T06:52:11;29.90;;;11.48;;
3718;SDS011;1875;52.492;6.860;2024-02-15T06:54:40;26.25;;;11.20;;
3718;SDS011;1875;52.492;6.860;2024-02-15T06:57:09;30.83;;;11.90;;
3718;SDS011;1875;52.492;6.860;2024-02-15T06:59:38;31.13;;;12.07;;
3718;SDS011;1875;52.492;6.860;2024-02-15T07:02:06;27.85;;;11.43;;
3718;SDS011;1875;52.492;6.860;2024-02-15T07:04:35;28.48;;;11.20;;
3718;SDS011;1875;52.492;6.860;2024-02-15T07:07:03;33.42;;;10.38;;
3718;SDS011;1875;52.492;6.860;2024-02-15T07:09:31;32.65;;;11.30;;
3718;SDS011;1875;52.492;6.860;2024-02-15T07:11:59;26.42;;;10.55;;
3718;SDS011;1875;52.492;6.860;2024-02-15T07:14:27;21.27;;;9.80;;
3718;SDS011;1875;52.492;6.860;2024-02-15T07:16:56;27.30;;;10.65;;
3718;SDS011;1875;52.492;6.860;2024-02-15T07:19:25;25.70;;;10.70;;
3718;SDS011;1875;52.492;6.860;2024-02-15T07:21:53;24.33;;;10.30;;
3718;SDS011;1875;52.492;6.860;2024-02-15T07:24:23;24.17;;;10.80;;
3718;SDS011;1875;52.492;6.860;2024-02-15T07:26:54;22.25;;;10.55;;
3718;SDS011;1875;52.492;6.860;2024-02-15T07:29:22;20.45;;;8.48;;
3718;SDS011;1875;52.492;6.860;2024-02-15T07:34:21;19.23;;;8.93;;
3718;SDS011;1875;52.492;6.860;2024-02-15T07:39:18;21.83;;;9.45;;
3718;SDS011;1875;52.492;6.860;2024-02-15T07:41:50;28.67;;;11.05;;
3718;SDS011;1875;52.492;6.860;2024-02-15T07:44:18;23.00;;;9.52;;
3718;SDS011;1875;52.492;6.860;2024-02-15T07:46:46;22.27;;;10.65;;
3718;SDS011;1875;52.492;6.860;2024-02-15T07:49:14;28.50;;;10.55;;
3718;SDS011;1875;52.492;6.860;2024-02-15T07:51:46;26.45;;;10.60;;
3718;SDS011;1875;52.492;6.860;2024-02-15T07:54:18;20.67;;;9.70;;
3718;SDS011;1875;52.492;6.860;2024-02-15T07:56:47;18.70;;;9.10;;
3718;SDS011;1875;52.492;6.860;2024-02-15T07:59:15;19.27;;;8.57;;
3718;SDS011;1875;52.492;6.860;2024-02-15T08:01:44;18.48;;;9.15;;
3718;SDS011;1875;52.492;6.860;2024-02-15T08:04:13;21.27;;;9.48;;
3718;SDS011;1875;52.492;6.860;2024-02-15T08:06:43;23.65;;;9.45;;
3718;SDS011;1875;52.492;6.860;2024-02-15T08:09:13;18.05;;;8.93;;
3718;SDS011;1875;52.492;6.860;2024-02-15T08:11:44;22.73;;;9.38;;
3718;SDS011;1875;52.492;6.860;2024-02-15T08:14:12;21.15;;;9.60;;
3718;SDS011;1875;52.492;6.860;2024-02-15T08:16:40;21.48;;;10.23;;
3718;SDS011;1875;52.492;6.860;2024-02-15T08:19:08;23.48;;;8.23;;
3718;SDS011;1875;52.492;6.860;2024-02-15T08:21:37;22.17;;;9.70;;
3718;SDS011;1875;52.492;6.860;2024-02-15T08:24:08;24.05;;;9.60;;
3718;SDS011;1875;52.492;6.860;2024-02-15T08:26:38;27.38;;;10.68;;
3718;SDS011;1875;52.492;6.860;2024-02-15T08:29:07;23.42;;;10.45;;
3718;SDS011;1875;52.492;6.860;2024-02-15T08:31:35;21.35;;;9.80;;
3718;SDS011;1875;52.492;6.860;2024-02-15T08:34:03;21.23;;;9.13;;
3718;SDS011;1875;52.492;6.860;2024-02-15T08:39:00;17.85;;;7.82;;
3718;SDS011;1875;52.492;6.860;2024-02-15T08:41:30;15.45;;;8.18;;
3718;SDS011;1875;52.492;6.860;2024-02-15T08:43:59;16.77;;;7.97;;
3718;SDS011;1875;52.492;6.860;2024-02-15T08:46:28;17.60;;;8.20;;
3718;SDS011;1875;52.492;6.860;2024-02-15T08:48:57;19.45;;;8.00;;
3718;SDS011;1875;52.492;6.860;2024-02-15T08:51:27;21.08;;;9.50;;
3718;SDS011;1875;52.492;6.860;2024-02-15T08:53:56;17.55;;;8.50;;
3718;SDS011;1875;52.492;6.860;2024-02-15T08:56:25;16.98;;;8.15;;
3718;SDS011;1875;52.492;6.860;2024-02-15T08:58:52;17.92;;;8.30;;
3718;SDS011;1875;52.492;6.860;2024-02-15T09:01:21;15.25;;;8.30;;
3718;SDS011;1875;52.492;6.860;2024-02-15T09:03:50;15.00;;;7.35;;
3718;SDS011;1875;52.492;6.860;2024-02-15T09:06:18;16.83;;;7.95;;
3718;SDS011;1875;52.492;6.860;2024-02-15T09:08:46;13.38;;;7.15;;
3718;SDS011;1875;52.492;6.860;2024-02-15T09:11:14;15.98;;;7.57;;
3718;SDS011;1875;52.492;6.860;2024-02-15T09:13:42;13.98;;;6.95;;
3718;SDS011;1875;52.492;6.860;2024-02-15T09:16:10;16.08;;;6.68;;
3718;SDS011;1875;52.492;6.860;2024-02-15T09:18:40;11.18;;;5.93;;
3718;SDS011;1875;52.492;6.860;2024-02-15T09:21:12;19.23;;;7.00;;
3718;SDS011;1875;52.492;6.860;2024-02-15T09:23:41;12.48;;;6.43;;
3718;SDS011;1875;52.492;6.860;2024-02-15T09:26:08;14.57;;;6.38;;
3718;SDS011;1875;52.492;6.860;2024-02-15T09:28:37;13.10;;;6.53;;
3718;SDS011;1875;52.492;6.860;2024-02-15T09:31:07;15.85;;;6.80;;
3718;SDS011;1875;52.492;6.860;2024-02-15T09:33:38;13.90;;;7.10;;
3718;SDS011;1875;52.492;6.860;2024-02-15T09:41:03;14.35;;;6.10;;
3718;SDS011;1875;52.492;6.860;2024-02-15T09:43:34;11.68;;;6.30;;
3718;SDS011;1875;52.492;6.860;2024-02-15T09:46:02;9.98;;;6.13;;
3718;SDS011;1875;52.492;6.860;2024-02-15T09:48:31;13.57;;;7.00;;
3718;SDS011;1875;52.492;6.860;2024-02-15T09:51:01;11.85;;;6.25;;
3718;SDS011;1875;52.492;6.860;2024-02-15T09:53:29;12.55;;;6.38;;
3718;SDS011;1875;52.492;6.860;2024-02-15T09:55:57;16.63;;;6.30;;
3718;SDS011;1875;52.492;6.860;2024-02-15T09:58:30;11.15;;;5.82;;
3718;SDS011;1875;52.492;6.860;2024-02-15T10:01:01;12.73;;;6.72;;
3718;SDS011;1875;52.492;6.860;2024-02-15T10:03:32;14.13;;;6.40;;
3718;SDS011;1875;52.492;6.860;2024-02-15T10:06:02;11.85;;;6.13;;
3718;SDS011;1875;52.492;6.860;2024-02-15T10:08:30;11.40;;;6.65;;
3718;SDS011;1875;52.492;6.860;2024-02-15T10:11:07;13.02;;;7.00;;
3718;SDS011;1875;52.492;6.860;2024-02-15T10:13:36;10.20;;;5.40;;
3718;SDS011;1875;52.492;6.860;2024-02-15T10:18:43;14.23;;;6.05;;
3718;SDS011;1875;52.492;6.860;2024-02-15T10:21:17;11.45;;;6.38;;
3718;SDS011;1875;52.492;6.860;2024-02-15T10:24:01;14.52;;;6.60;;
3718;SDS011;1875;52.492;6.860;2024-02-15T10:26:31;9.90;;;6.10;;
3718;SDS011;1875;52.492;6.860;2024-02-15T10:29:04;10.40;;;5.43;;
3718;SDS011;1875;52.492;6.860;2024-02-15T10:31:35;10.13;;;5.47;;
3718;SDS011;1875;52.492;6.860;2024-02-15T10:34:03;8.43;;;4.30;;
3718;SDS011;1875;52.492;6.860;2024-02-15T10:36:33;9.13;;;4.85;;
3718;SDS011;1875;52.492;6.860;2024-02-15T10:39:11;10.68;;;6.70;;
3718;SDS011;1875;52.492;6.860;2024-02-15T10:41:44;10.13;;;4.85;;
3718;SDS011;1875;52.492;6.860;2024-02-15T10:44:13;7.88;;;4.10;;
3718;SDS011;1875;52.492;6.860;2024-02-15T10:46:46;7.32;;;4.65;;
3718;SDS011;1875;52.492;6.860;2024-02-15T10:49:17;8.63;;;5.05;;
3718;SDS011;1875;52.492;6.860;2024-02-15T10:51:49;8.15;;;4.85;;
3718;SDS011;1875;52.492;6.860;2024-02-15T10:54:24;7.32;;;4.38;;
3718;SDS011;1875;52.492;6.860;2024-02-15T10:56:58;7.93;;;4.72;;
3718;SDS011;1875;52.492;6.860;2024-02-15T10:59:31;10.50;;;5.07;;
3718;SDS011;1875;52.492;6.860;2024-02-15T11:02:04;7.68;;;4.90;;
3718;SDS011;1875;52.492;6.860;2024-02-15T11:04:50;6.63;;;4.10;;
3718;SDS011;1875;52.492;6.860;2024-02-15T11:07:24;9.27;;;4.25;;
3718;SDS011;1875;52.492;6.860;2024-02-15T11:09:57;9.18;;;4.75;;
3718;SDS011;1875;52.492;6.860;2024-02-15T11:12:27;26.40;;;13.68;;
3718;SDS011;1875;52.492;6.860;2024-02-15T11:14:56;44.47;;;21.23;;
3718;SDS011;1875;52.492;6.860;2024-02-15T11:17:46;36.28;;;15.23;;
3718;SDS011;1875;52.492;6.860;2024-02-15T11:23:27;9.32;;;5.13;;
3718;SDS011;1875;52.492;6.860;2024-02-15T11:25:58;11.30;;;5.50;;
3718;SDS011;1875;52.492;6.860;2024-02-15T11:28:37;8.82;;;5.75;;
3718;SDS011;1875;52.492;6.860;2024-02-15T11:31:07;15.88;;;10.35;;
3718;SDS011;1875;52.492;6.860;2024-02-15T11:33:36;11.20;;;5.90;;
3718;SDS011;1875;52.492;6.860;2024-02-15T11:36:05;11.88;;;6.13;;
3718;SDS011;1875;52.492;6.860;2024-02-15T11:38:36;8.52;;;4.97;;
3718;SDS011;1875;52.492;6.860;2024-02-15T11:41:07;11.15;;;5.53;;
3718;SDS011;1875;52.492;6.860;2024-02-15T11:43:52;8.57;;;5.03;;
3718;SDS011;1875;52.492;6.860;2024-02-15T11:46:25;7.90;;;4.93;;
3718;SDS011;1875;52.492;6.860;2024-02-15T11:48:56;10.60;;;5.10;;
3718;SDS011;1875;52.492;6.860;2024-02-15T11:51:26;10.70;;;5.30;;
3718;SDS011;1875;52.492;6.860;2024-02-15T11:54:03;12.02;;;4.57;;
3718;SDS011;1875;52.492;6.860;2024-02-15T11:56:51;8.70;;;4.82;;
3718;SDS011;1875;52.492;6.860;2024-02-15T11:59:21;14.80;;;4.53;;
3718;SDS011;1875;52.492;6.860;2024-02-15T12:01:58;9.10;;;4.25;;
3718;SDS011;1875;52.492;6.860;2024-02-15T12:04:43;9.25;;;5.43;;
3718;SDS011;1875;52.492;6.860;2024-02-15T12:07:29;11.10;;;6.95;;
3718;SDS011;1875;52.492;6.860;2024-02-15T12:10:17;11.57;;;5.75;;
3718;SDS011;1875;52.492;6.860;2024-02-15T12:13:03;16.60;;;5.28;;
3718;SDS011;1875;52.492;6.860;2024-02-15T12:15:57;12.63;;;5.10;;
3718;SDS011;1875;52.492;6.860;2024-02-15T12:18:43;12.05;;;5.13;;
3718;SDS011;1875;52.492;6.860;2024-02-15T12:21:16;13.88;;;6.75;;
3718;SDS011;1875;52.492;6.860;2024-02-15T12:23:44;12.38;;;6.55;;
3718;SDS011;1875;52.492;6.860;2024-02-15T12:26:14;15.93;;;6.95;;
3718;SDS011;1875;52.492;6.860;2024-02-15T12:28:44;14.82;;;7.10;;
3718;SDS011;1875;52.492;6.860;2024-02-15T12:31:14;16.70;;;8.77;;
3718;SDS011;1875;52.492;6.860;2024-02-15T12:33:43;17.13;;;6.63;;
3718;SDS011;1875;52.492;6.860;2024-02-15T12:36:13;15.93;;;8.57;;
3718;SDS011;1875;52.492;6.860;2024-02-15T12:38:43;15.93;;;7.70;;
3718;SDS011;1875;52.492;6.860;2024-02-15T12:41:22;13.82;;;7.28;;
3718;SDS011;1875;52.492;6.860;2024-02-15T12:43:52;16.98;;;8.20;;
3718;SDS011;1875;52.492;6.860;2024-02-15T12:46:20;13.18;;;7.65;;
3718;SDS011;1875;52.492;6.860;2024-02-15T12:48:48;14.68;;;7.45;;
3718;SDS011;1875;52.492;6.860;2024-02-15T12:51:16;19.48;;;8.35;;
3718;SDS011;1875;52.492;6.860;2024-02-15T12:53:45;14.23;;;8.13;;
3718;SDS011;1875;52.492;6.860;2024-02-15T12:56:19;18.23;;;8.38;;
3718;SDS011;1875;52.492;6.860;2024-02-15T12:58:48;15.48;;;7.90;;
3718;SDS011;1875;52.492;6.860;2024-02-15T13:01:16;15.65;;;8.25;;
3718;SDS011;1875;52.492;6.860;2024-02-15T13:03:44;10.75;;;6.68;;
3718;SDS011;1875;52.492;6.860;2024-02-15T13:06:12;13.35;;;7.85;;
3718;SDS011;1875;52.492;6.860;2024-02-15T13:08:41;17.38;;;8.75;;
3718;SDS011;1875;52.492;6.860;2024-02-15T13:11:11;14.98;;;9.70;;
3718;SDS011;1875;52.492;6.860;2024-02-15T13:13:40;17.90;;;9.02;;
3718;SDS011;1875;52.492;6.860;2024-02-15T13:16:10;10.30;;;6.18;;
3718;SDS011;1875;52.492;6.860;2024-02-15T13:18:39;12.45;;;6.85;;
3718;SDS011;1875;52.492;6.860;2024-02-15T13:21:07;13.65;;;6.43;;
3718;SDS011;1875;52.492;6.860;2024-02-15T13:23:36;12.73;;;6.55;;
3718;SDS011;1875;52.492;6.860;2024-02-15T13:26:04;15.40;;;7.50;;
3718;SDS011;1875;52.492;6.860;2024-02-15T13:28:34;13.18;;;5.75;;
3718;SDS011;1875;52.492;6.860;2024-02-15T13:31:02;13.35;;;6.40;;
3718;SDS011;1875;52.492;6.860;2024-02-15T13:33:31;9.82;;;5.60;;
3718;SDS011;1875;52.492;6.860;2024-02-15T13:36:00;9.93;;;6.20;;
3718;SDS011;1875;52.492;6.860;2024-02-15T13:38:28;15.95;;;6.35;;
3718;SDS011;1875;52.492;6.860;2024-02-15T13:40:56;12.13;;;5.43;;
3718;SDS011;1875;52.492;6.860;2024-02-15T13:43:28;10.10;;;5.93;;
3718;SDS011;1875;52.492;6.860;2024-02-15T13:45:58;12.00;;;4.60;;
3718;SDS011;1875;52.492;6.860;2024-02-15T13:48:28;12.65;;;5.20;;
3718;SDS011;1875;52.492;6.860;2024-02-15T13:50:59;10.73;;;5.72;;
3718;SDS011;1875;52.492;6.860;2024-02-15T13:53:27;11.90;;;5.72;;
3718;SDS011;1875;52.492;6.860;2024-02-15T13:55:55;13.40;;;5.13;;
3718;SDS011;1875;52.492;6.860;2024-02-15T13:58:23;9.38;;;5.40;;
3718;SDS011;1875;52.492;6.860;2024-02-15T14:00:51;20.23;;;5.32;;
3718;SDS011;1875;52.492;6.860;2024-02-15T14:03:19;17.73;;;5.97;;
3718;SDS011;1875;52.492;6.860;2024-02-15T14:05:48;14.80;;;4.95;;
3718;SDS011;1875;52.492;6.860;2024-02-15T14:08:18;14.02;;;7.30;;
3718;SDS011;1875;52.492;6.860;2024-02-15T14:10:47;13.27;;;6.05;;
3718;SDS011;1875;52.492;6.860;2024-02-15T14:13:15;10.32;;;5.28;;
3718;SDS011;1875;52.492;6.860;2024-02-15T14:15:42;13.77;;;5.20;;
3718;SDS011;1875;52.492;6.860;2024-02-15T14:18:11;11.55;;;4.93;;
3718;SDS011;1875;52.492;6.860;2024-02-15T14:20:42;9.13;;;4.63;;
3718;SDS011;1875;52.492;6.860;2024-02-15T14:23:10;8.27;;;3.78;;
3718;SDS011;1875;52.492;6.860;2024-02-15T14:25:42;10.65;;;4.72;;
3718;SDS011;1875;52.492;6.860;2024-02-15T14:28:11;16.42;;;6.93;;
3718;SDS011;1875;52.492;6.860;2024-02-15T14:30:40;10.75;;;5.05;;
3718;SDS011;1875;52.492;6.860;2024-02-15T14:33:25;13.75;;;5.95;;
3718;SDS011;1875;52.492;6.860;2024-02-15T14:35:56;8.60;;;4.78;;
3718;SDS011;1875;52.492;6.860;2024-02-15T14:38:26;11.10;;;4.38;;
3718;SDS011;1875;52.492;6.860;2024-02-15T14:40:55;10.13;;;5.20;;
3718;SDS011;1875;52.492;6.860;2024-02-15T14:43:26;11.15;;;4.93;;
3718;SDS011;1875;52.492;6.860;2024-02-15T14:45:55;11.05;;;4.47;;
3718;SDS011;1875;52.492;6.860;2024-02-15T14:48:24;10.90;;;5.18;;
3718;SDS011;1875;52.492;6.860;2024-02-15T14:50:53;9.82;;;4.95;;
3718;SDS011;1875;52.492;6.860;2024-02-15T14:53:25;9.73;;;4.90;;
3718;SDS011;1875;52.492;6.860;2024-02-15T14:55:53;24.13;;;11.57;;
3718;SDS011;1875;52.492;6.860;2024-02-15T14:58:22;12.30;;;6.95;;
3718;SDS011;1875;52.492;6.860;2024-02-15T15:03:29;14.82;;;6.60;;
3718;SDS011;1875;52.492;6.860;2024-02-15T15:05:59;9.32;;;5.50;;
3718;SDS011;1875;52.492;6.860;2024-02-15T15:08:41;12.25;;;4.85;;
3718;SDS011;1875;52.492;6.860;2024-02-15T15:11:26;14.70;;;6.13;;
3718;SDS011;1875;52.492;6.860;2024-02-15T15:14:13;8.60;;;3.90;;
3718;SDS011;1875;52.492;6.860;2024-02-15T15:21:37;9.75;;;4.40;;
3718;SDS011;1875;52.492;6.860;2024-02-15T15:24:05;10.88;;;5.03;;
3718;SDS011;1875;52.492;6.860;2024-02-15T15:26:36;7.72;;;3.72;;
3718;SDS011;1875;52.492;6.860;2024-02-15T15:29:04;9.32;;;6.60;;
3718;SDS011;1875;52.492;6.860;2024-02-15T15:31:34;10.10;;;5.25;;
3718;SDS011;1875;52.492;6.860;2024-02-15T15:34:02;16.10;;;9.80;;
3718;SDS011;1875;52.492;6.860;2024-02-15T15:36:30;12.95;;;6.45;;
3718;SDS011;1875;52.492;6.860;2024-02-15T15:38:59;11.13;;;3.85;;
3718;SDS011;1875;52.492;6.860;2024-02-15T15:41:32;9.77;;;4.20;;
3718;SDS011;1875;52.492;6.860;2024-02-15T15:44:00;8.38;;;3.97;;
3718;SDS011;1875;52.492;6.860;2024-02-15T15:46:28;12.13;;;5.55;;